createdAt,value
2023-08-17T00:01:06.935Z,100188.28
2023-08-17T00:03:43.396Z,100181.38
2023-08-17T00:06:15.669Z,100182.22
2023-08-17T00:09:34.097Z,100202.50
2023-08-17T00:12:00.463Z,100200.66
2023-08-17T00:14:26.892Z,100151.28
2023-08-17T00:16:53.781Z,100160.63
2023-08-17T00:19:42.364Z,100197.88
2023-08-17T00:25:45.056Z,100131.59
2023-08-17T00:28:11.603Z,100135.84
2023-08-17T00:30:38.875Z,100126.41
2023-08-17T00:37:07.880Z,100128.31
2023-08-17T00:40:05.377Z,100122.38
2023-08-17T00:51:58.324Z,100112.00
2023-08-17T00:57:57.014Z,100113.91
2023-08-17T01:00:41.997Z,100153.00
2023-08-17T01:03:11.456Z,100142.50
2023-08-17T01:05:38.650Z,100159.31
2023-08-17T01:08:05.405Z,100153.84
2023-08-17T01:11:08.111Z,100161.63
2023-08-17T01:13:58.965Z,100164.41
2023-08-17T01:16:34.231Z,100145.56
2023-08-17T01:19:02.293Z,100142.78
2023-08-17T01:21:44.703Z,100129.72
2023-08-17T01:24:15.217Z,100151.47
2023-08-17T01:27:04.143Z,100109.88
2023-08-17T01:29:42.581Z,100160.88
2023-08-17T01:35:45.238Z,100158.38
2023-08-17T01:38:17.480Z,100157.84
2023-08-17T01:40:45.936Z,100137.50
2023-08-17T01:43:13.410Z,100163.81
2023-08-17T01:45:39.838Z,100100.09
2023-08-17T01:48:21.076Z,100106.56
2023-08-17T01:51:05.102Z,100107.25
2023-08-17T01:53:31.536Z,100087.34
2023-08-17T01:56:01.182Z,100127.16
2023-08-17T01:58:35.496Z,100138.47
2023-08-17T02:01:02.071Z,100120.41
2023-08-17T02:03:40.401Z,100134.94
2023-08-17T02:07:25.810Z,100060.84
2023-08-17T02:10:00.725Z,100109.09
2023-08-17T02:12:31.587Z,100130.88
2023-08-17T02:15:53.859Z,100150.28
2023-08-17T02:18:51.219Z,100140.59
2023-08-17T02:21:17.835Z,100138.91
2023-08-17T02:23:44.632Z,100043.72
2023-08-17T02:32:37.711Z,100092.22
2023-08-17T02:35:40.879Z,100098.34
2023-08-17T02:38:50.328Z,100067.84
2023-08-17T02:41:40.312Z,100060.50
2023-08-17T02:44:17.863Z,100089.53
2023-08-17T02:46:44.311Z,100107.72
2023-08-17T02:49:10.913Z,100089.25
2023-08-17T02:51:44.155Z,100086.69
2023-08-17T02:54:12.898Z,100067.94
2023-08-17T02:56:39.418Z,100092.91
2023-08-17T02:59:05.852Z,100072.16
2023-08-17T03:01:35.185Z,100117.03
2023-08-17T03:04:01.738Z,100114.97
2023-08-17T03:06:29.441Z,100117.72
2023-08-17T03:08:58.199Z,100121.75
2023-08-17T03:11:30.279Z,100126.75
2023-08-17T03:14:01.321Z,100134.94
2023-08-17T03:17:04.200Z,100077.09
2023-08-17T03:20:11.548Z,100117.56
2023-08-17T03:23:03.265Z,100067.13
2023-08-17T03:28:13.929Z,100087.22
2023-08-17T03:30:42.949Z,100080.25
2023-08-17T03:33:14.761Z,100090.47
2023-08-17T03:35:43.119Z,100103.72
2023-08-17T03:38:09.582Z,100133.78
2023-08-17T03:40:38.204Z,100099.91
2023-08-17T03:43:04.834Z,100134.09
2023-08-17T03:45:32.061Z,100122.53
2023-08-17T03:47:58.484Z,100126.56
2023-08-17T03:50:27.941Z,100116.25
2023-08-17T03:52:54.567Z,100143.94
2023-08-17T03:55:21.005Z,100103.13
2023-08-17T03:57:47.560Z,100139.44
2023-08-17T04:00:16.661Z,100117.16
2023-08-17T04:02:45.841Z,100160.50
2023-08-17T04:05:12.306Z,100097.78
2023-08-17T04:07:45.065Z,100103.25
2023-08-17T04:10:11.744Z,100136.13
2023-08-17T04:12:38.148Z,100112.75
2023-08-17T04:15:07.100Z,100155.16
2023-08-17T04:17:37.803Z,100091.06
2023-08-17T04:20:05.832Z,100137.91
2023-08-17T04:22:32.296Z,100097.56
2023-08-17T04:25:10.680Z,100162.50
2023-08-17T04:27:37.213Z,100161.13
2023-08-17T04:30:04.012Z,100122.00
2023-08-17T04:32:32.907Z,100119.53
2023-08-17T04:34:59.338Z,100169.19
2023-08-17T04:37:30.760Z,100149.47
2023-08-17T04:40:00.963Z,100150.25
2023-08-17T04:42:28.276Z,100090.41
2023-08-17T04:44:54.685Z,100130.44
2023-08-17T04:47:21.082Z,100130.34
2023-08-17T04:49:47.562Z,100178.50
2023-08-17T04:52:16.472Z,100175.13
2023-08-17T04:54:42.919Z,100161.31
2023-08-17T04:57:09.359Z,100168.41
2023-08-17T04:59:36.010Z,100168.31
2023-08-17T05:02:02.623Z,100183.88
2023-08-17T05:04:33.425Z,100182.06
2023-08-17T05:06:59.855Z,100162.69
2023-08-17T05:09:27.548Z,100190.28
2023-08-17T05:11:54.204Z,100187.03
2023-08-17T05:14:20.681Z,100179.03
2023-08-17T05:16:47.178Z,100173.09
2023-08-17T05:19:13.572Z,100175.44
2023-08-17T05:21:39.998Z,100174.19
2023-08-17T05:24:06.740Z,100160.25
2023-08-17T05:26:33.197Z,100158.53
2023-08-17T05:28:59.564Z,100136.97
2023-08-17T05:31:26.003Z,100191.81
2023-08-17T05:33:52.705Z,100182.75
2023-08-17T05:36:19.162Z,100184.47
2023-08-17T05:38:45.603Z,100167.00
2023-08-17T05:41:12.031Z,100146.19
2023-08-17T05:43:38.519Z,100211.38
2023-08-17T05:46:10.640Z,100210.25
2023-08-17T05:48:37.067Z,100175.50
2023-08-17T05:51:03.620Z,100199.69
2023-08-17T05:53:30.053Z,100199.69
2023-08-17T05:55:56.485Z,100193.03
2023-08-17T05:58:25.443Z,100157.22
2023-08-17T06:00:52.406Z,100189.28
2023-08-17T06:03:18.986Z,100175.97
2023-08-17T06:05:45.640Z,100205.03
2023-08-17T06:08:14.608Z,100183.63
2023-08-17T06:10:41.058Z,100159.91
2023-08-17T06:13:07.492Z,100200.25
2023-08-17T06:15:33.924Z,100180.97
2023-08-17T06:18:00.462Z,100176.44
2023-08-17T06:20:31.981Z,100210.84
2023-08-17T06:22:59.431Z,100186.44
2023-08-17T06:25:27.329Z,100194.47
2023-08-17T06:27:53.895Z,100215.81
2023-08-17T06:30:20.369Z,100200.81
2023-08-17T06:32:56.100Z,100213.50
2023-08-17T06:36:07.969Z,100147.00
2023-08-17T06:38:34.527Z,100201.97
2023-08-17T06:41:00.949Z,100168.66
2023-08-17T06:43:27.452Z,100138.56
2023-08-17T06:46:21.954Z,100206.88
2023-08-17T06:48:48.478Z,100167.97
2023-08-17T06:51:18.333Z,100191.50
2023-08-17T06:54:17.326Z,100188.50
2023-08-17T06:56:43.703Z,100175.72
2023-08-17T07:03:13.394Z,100200.91
2023-08-17T07:05:43.345Z,100172.84
2023-08-17T07:08:12.043Z,100198.31
2023-08-17T07:10:38.607Z,100156.72
2023-08-17T07:13:08.290Z,100187.66
2023-08-17T07:15:35.038Z,100167.75
2023-08-17T07:18:01.596Z,100210.88
2023-08-17T07:20:28.292Z,100185.41
2023-08-17T07:22:54.801Z,100223.09
2023-08-17T07:25:21.269Z,100197.94
2023-08-17T07:27:47.721Z,100219.75
2023-08-17T07:30:14.380Z,100229.66
2023-08-17T07:32:40.941Z,100179.56
2023-08-17T07:35:08.076Z,100199.78
2023-08-17T07:37:35.157Z,100225.38
2023-08-17T07:40:46.712Z,100138.81
2023-08-17T07:43:13.253Z,100169.47
2023-08-17T07:45:39.653Z,100192.38
2023-08-17T07:48:06.520Z,100211.16
2023-08-17T07:50:32.960Z,100212.78
2023-08-17T07:52:59.372Z,100199.81
2023-08-17T07:55:27.472Z,100177.72
2023-08-17T07:57:54.141Z,100214.97
2023-08-17T08:00:20.929Z,100172.66
2023-08-17T08:02:47.699Z,100190.66
2023-08-17T08:05:15.315Z,100196.50
2023-08-17T08:07:42.041Z,100201.38
2023-08-17T08:10:09.381Z,100182.19
2023-08-17T08:12:38.596Z,100211.31
2023-08-17T08:15:05.317Z,100173.56
2023-08-17T08:17:32.756Z,100202.97
2023-08-17T08:20:08.798Z,100206.88
2023-08-17T08:22:35.435Z,100159.28
2023-08-17T08:25:09.627Z,100168.78
2023-08-17T08:27:36.057Z,100182.81
2023-08-17T08:30:02.474Z,100177.25
2023-08-17T08:32:30.811Z,100225.38
2023-08-17T08:34:57.389Z,100219.41
2023-08-17T08:37:23.783Z,100192.88
2023-08-17T08:39:58.633Z,100180.53
2023-08-17T08:42:25.882Z,100164.66
2023-08-17T08:44:52.463Z,100207.59
2023-08-17T08:47:19.530Z,100203.16
2023-08-17T08:50:04.694Z,100226.56
2023-08-17T08:52:34.868Z,100223.78
2023-08-17T08:55:09.590Z,100230.88
2023-08-17T08:57:37.272Z,100207.47
2023-08-17T09:00:04.916Z,100204.34
2023-08-17T09:02:31.434Z,100210.75
2023-08-17T09:04:58.691Z,100226.59
2023-08-17T09:07:26.648Z,100231.97
2023-08-17T09:09:53.625Z,100227.34
2023-08-17T09:12:30.102Z,100207.69
2023-08-17T09:15:06.101Z,100187.22
2023-08-17T09:17:35.371Z,100185.06
2023-08-17T09:20:02.078Z,100217.81
2023-08-17T09:22:40.206Z,100215.03
2023-08-17T09:25:07.698Z,100209.44
2023-08-17T09:27:34.306Z,100202.09
2023-08-17T09:30:09.762Z,100198.91
2023-08-17T09:32:36.601Z,100185.25
2023-08-17T09:35:05.420Z,100194.28
2023-08-17T09:37:32.565Z,100193.81
2023-08-17T09:39:59.463Z,100211.72
2023-08-17T09:42:28.502Z,100176.03
2023-08-17T09:44:56.635Z,100199.84
2023-08-17T09:47:23.985Z,100189.59
2023-08-17T09:50:20.573Z,100156.72
2023-08-17T09:52:51.218Z,100160.28
2023-08-17T09:55:20.014Z,100154.88
2023-08-17T09:57:50.383Z,100153.50
2023-08-17T10:00:17.883Z,100129.56
2023-08-17T10:05:40.567Z,100164.38
2023-08-17T10:08:07.993Z,100202.41
2023-08-17T10:10:37.387Z,100168.28
2023-08-17T10:13:52.031Z,100207.03
2023-08-17T10:16:30.889Z,100201.28
2023-08-17T10:19:38.309Z,100206.00
2023-08-17T10:22:19.320Z,100188.50
2023-08-17T10:24:50.320Z,100194.31
2023-08-17T10:27:17.877Z,100211.94
2023-08-17T10:29:46.864Z,100184.31
2023-08-17T10:32:16.625Z,100174.19
2023-08-17T10:34:44.565Z,100181.53
2023-08-17T10:37:12.488Z,100203.22
2023-08-17T10:39:46.368Z,100194.53
2023-08-17T10:42:13.915Z,100179.88
2023-08-17T10:44:46.408Z,100191.03
2023-08-17T10:47:36.343Z,100191.38
2023-08-17T10:50:20.928Z,100149.16
2023-08-17T10:52:49.676Z,100171.41
2023-08-17T10:55:20.911Z,100186.19
2023-08-17T10:57:48.334Z,100199.69
2023-08-17T11:27:14.933Z,100134.56
2023-08-17T11:30:53.317Z,100158.91
2023-08-17T11:33:19.742Z,100125.13
2023-08-17T11:35:46.903Z,100170.63
2023-08-17T11:38:13.309Z,100168.66
2023-08-17T11:40:39.740Z,100149.75
2023-08-17T11:43:06.233Z,100151.31
2023-08-17T11:45:33.292Z,100153.94
2023-08-17T11:47:59.840Z,100148.00
2023-08-17T11:50:28.962Z,100133.56
2023-08-17T11:52:58.072Z,100148.03
2023-08-17T11:55:25.316Z,100133.63
2023-08-17T11:57:51.666Z,100126.78
2023-08-17T12:00:21.211Z,100143.81
2023-08-17T12:02:49.176Z,100143.69
2023-08-17T12:05:20.956Z,100143.25
2023-08-17T12:07:47.500Z,100139.19
2023-08-17T12:10:13.978Z,100146.16
2023-08-17T12:12:41.261Z,100139.22
2023-08-17T12:15:08.035Z,100133.63
2023-08-17T12:17:34.444Z,100144.34
2023-08-17T12:20:01.119Z,100148.38
2023-08-17T12:22:28.394Z,100146.25
2023-08-17T12:24:55.112Z,100141.88
2023-08-17T12:27:24.001Z,100155.19
2023-08-17T12:29:51.356Z,100153.28
2023-08-17T12:32:20.920Z,100151.69
2023-08-17T12:34:47.676Z,100153.72
2023-08-17T12:37:21.114Z,100149.63
2023-08-17T12:39:48.704Z,100157.88
2023-08-17T12:42:15.445Z,100145.13
2023-08-17T12:44:42.410Z,100151.06
2023-08-17T12:47:08.810Z,100147.94
2023-08-17T12:49:39.535Z,100145.38
2023-08-17T12:52:06.353Z,100143.53
2023-08-17T12:54:32.775Z,100155.66
2023-08-17T12:57:00.152Z,100151.38
2023-08-17T12:59:27.625Z,100159.72
2023-08-17T13:01:54.062Z,100149.59
2023-08-17T13:04:20.439Z,100159.72
2023-08-17T13:06:50.064Z,100145.94
2023-08-17T13:09:17.010Z,100150.91
2023-08-17T13:11:43.565Z,100143.25
2023-08-17T13:14:09.994Z,100141.31
2023-08-17T13:16:36.427Z,100126.75
2023-08-17T13:19:02.919Z,100115.47
2023-08-17T13:21:29.593Z,100123.72
2023-08-17T13:23:56.266Z,100127.63
2023-08-17T13:26:25.900Z,100113.34
2023-08-17T13:28:52.298Z,100109.09
2023-08-17T13:31:24.402Z,100120.97
2023-08-17T13:33:51.856Z,100112.69
2023-08-17T13:36:18.927Z,100093.56
2023-08-17T13:38:46.464Z,100105.88
2023-08-17T13:41:13.464Z,100107.16
2023-08-17T13:43:39.911Z,100099.25
2023-08-17T13:46:06.558Z,100093.53
2023-08-17T13:48:32.986Z,100077.81
2023-08-17T13:50:59.363Z,100064.41
2023-08-17T13:53:25.789Z,100071.81
2023-08-17T13:55:52.140Z,100056.28
2023-08-17T13:58:18.511Z,100062.34
2023-08-17T14:00:44.911Z,100047.69
2023-08-17T14:03:11.436Z,100033.53
2023-08-17T14:05:37.866Z,100041.25
2023-08-17T14:08:05.319Z,100024.13
2023-08-17T14:10:39.249Z,100040.69
2023-08-17T14:13:06.457Z,100043.56
2023-08-17T14:15:32.955Z,100052.06
2023-08-17T14:17:59.475Z,100039.69
2023-08-17T14:20:26.012Z,100043.16
2023-08-17T14:22:52.365Z,100032.66
2023-08-17T14:25:18.834Z,100039.94
2023-08-17T14:27:45.216Z,100023.28
2023-08-17T14:30:13.980Z,100015.03
2023-08-17T14:32:40.446Z,100023.72
2023-08-17T14:35:12.344Z,100014.69
2023-08-17T14:37:39.540Z,100020.84
2023-08-17T14:40:06.592Z,100011.47
2023-08-17T14:42:33.012Z,99979.56
2023-08-17T14:44:59.431Z,99996.91
2023-08-17T14:47:26.179Z,99984.13
2023-08-17T14:49:54.427Z,99991.97
2023-08-17T14:52:20.926Z,99982.00
2023-08-17T14:54:47.274Z,99978.50
2023-08-17T14:57:13.613Z,99963.53
2023-08-17T14:59:40.015Z,99975.56
2023-08-17T15:02:06.412Z,99957.16
2023-08-17T15:04:33.689Z,99961.94
2023-08-17T15:07:00.099Z,99952.56
2023-08-17T15:09:26.484Z,99950.69
2023-08-17T15:11:52.937Z,99940.13
2023-08-17T15:14:19.378Z,99948.13
2023-08-17T15:16:45.823Z,99942.66
2023-08-17T15:19:14.015Z,99938.06
2023-08-17T15:21:40.584Z,99943.66
2023-08-17T15:24:06.994Z,99948.63
2023-08-17T15:26:34.042Z,99943.16
2023-08-17T15:29:00.704Z,99952.31
2023-08-17T15:31:27.223Z,99959.47
2023-08-17T15:33:53.684Z,99948.31
2023-08-17T15:36:23.006Z,99938.03
2023-08-17T15:38:49.510Z,99941.06
2023-08-17T15:41:15.912Z,99944.97
2023-08-17T15:43:42.523Z,99935.75
2023-08-17T15:46:10.505Z,99956.28
2023-08-17T15:48:38.586Z,99945.63
2023-08-17T15:51:05.012Z,99937.88
2023-08-17T15:53:31.582Z,99939.63
2023-08-17T15:55:58.037Z,99953.28
2023-08-17T15:58:24.694Z,99952.94
2023-08-17T16:00:51.037Z,99948.00
2023-08-17T16:03:17.509Z,99961.16
2023-08-17T16:05:45.416Z,99965.06
2023-08-17T16:10:46.717Z,99974.44
2023-08-17T16:13:13.047Z,99971.28
2023-08-17T16:15:39.429Z,99969.06
2023-08-17T16:18:05.821Z,99966.66
2023-08-17T16:20:34.552Z,99976.72
2023-08-17T16:23:01.712Z,99980.66
2023-08-17T16:25:30.645Z,99981.88
2023-08-17T16:27:57.118Z,99983.63
2023-08-17T16:30:24.033Z,99986.72
2023-08-17T16:32:50.402Z,99992.03
2023-08-17T16:35:16.961Z,99991.00
2023-08-17T16:37:43.275Z,99999.56
2023-08-17T16:40:17.589Z,100002.13
2023-08-17T16:42:50.442Z,100016.81
2023-08-17T16:45:17.353Z,100014.72
2023-08-17T16:47:43.735Z,100011.63
2023-08-17T16:50:10.523Z,100009.25
2023-08-17T16:52:39.684Z,100014.06
2023-08-17T16:55:06.654Z,100021.38
2023-08-17T16:57:33.954Z,100022.13
2023-08-17T17:00:04.380Z,100026.34
2023-08-17T17:02:31.197Z,100027.28
2023-08-17T17:04:57.567Z,100035.81
2023-08-17T17:07:23.940Z,100045.94
2023-08-17T17:09:50.344Z,100048.38
2023-08-17T17:12:16.688Z,100036.72
2023-08-17T17:14:43.078Z,100030.72
2023-08-17T17:17:09.473Z,100023.50
2023-08-17T17:19:35.933Z,100013.13
2023-08-17T17:22:02.376Z,100019.56
2023-08-17T17:24:28.700Z,100021.97
2023-08-17T17:26:55.061Z,100014.19
2023-08-17T17:29:21.418Z,100018.03
2023-08-17T17:31:47.789Z,100018.84
2023-08-17T17:34:14.120Z,100015.03
2023-08-17T17:36:40.513Z,100002.78
2023-08-17T17:39:06.931Z,99999.22
2023-08-17T17:41:33.315Z,100006.44
2023-08-17T17:43:59.679Z,99997.25
2023-08-17T17:46:26.165Z,99994.28
2023-08-17T17:48:53.960Z,100000.44
2023-08-17T17:51:22.045Z,99997.31
2023-08-17T17:53:48.368Z,99999.59
2023-08-17T17:56:14.721Z,100010.78
2023-08-17T17:58:41.151Z,100015.81
2023-08-17T18:01:07.666Z,100011.94
2023-08-17T18:03:34.026Z,100005.25
2023-08-17T18:06:00.653Z,100005.97
2023-08-17T18:08:27.044Z,100015.97
2023-08-17T18:10:53.415Z,100019.25
2023-08-17T18:13:19.745Z,100012.94
2023-08-17T18:15:46.079Z,100021.63
2023-08-17T18:18:12.436Z,100021.50
2023-08-17T18:20:38.819Z,100018.34
2023-08-17T18:23:05.646Z,100025.06
2023-08-17T18:25:32.963Z,100031.19
2023-08-17T18:27:59.896Z,100037.31
2023-08-17T18:30:26.292Z,100036.44
2023-08-17T18:32:52.672Z,100022.69
2023-08-17T18:35:21.554Z,100031.47
2023-08-17T18:37:48.429Z,100032.31
2023-08-17T18:40:14.797Z,100035.69
2023-08-17T18:42:41.203Z,100033.09
2023-08-17T18:45:08.188Z,100041.78
2023-08-17T18:47:34.579Z,100037.16
2023-08-17T18:50:00.949Z,100040.13
2023-08-17T18:52:28.203Z,100059.50
2023-08-17T18:55:00.186Z,100048.59
2023-08-17T18:57:27.062Z,100055.44
2023-08-17T18:59:53.646Z,100063.47
2023-08-17T19:02:20.069Z,100066.97
2023-08-17T19:04:47.306Z,100072.19
2023-08-17T19:07:15.052Z,100072.25
2023-08-17T19:09:41.863Z,100073.59
2023-08-17T19:12:08.354Z,100078.81
2023-08-17T19:14:34.743Z,100078.69
2023-08-17T19:17:01.242Z,100077.50
2023-08-17T19:19:27.755Z,100071.75
2023-08-17T19:21:54.214Z,100077.28
2023-08-17T19:24:20.581Z,100079.38
2023-08-17T19:26:46.942Z,100076.28
2023-08-17T19:29:13.331Z,100081.22
2023-08-17T19:31:39.743Z,100077.16
2023-08-17T19:34:07.700Z,100081.97
2023-08-17T19:36:34.923Z,100074.09
2023-08-17T19:39:01.277Z,100075.22
2023-08-17T19:41:27.618Z,100077.44
2023-08-17T19:43:53.955Z,100078.53
2023-08-17T19:46:20.454Z,100078.81
2023-08-17T19:48:46.931Z,100086.19
2023-08-17T19:51:13.314Z,100080.88
2023-08-17T19:56:09.963Z,100081.38
2023-08-17T19:58:37.461Z,100084.31
2023-08-17T20:01:08.410Z,100092.94
2023-08-17T20:03:35.732Z,100087.88
2023-08-17T20:06:03.170Z,100086.56
2023-08-17T20:08:30.351Z,100084.94
2023-08-17T20:10:56.881Z,100084.06
2023-08-17T20:13:23.249Z,100096.00
2023-08-17T20:15:56.280Z,100095.16
2023-08-17T20:18:22.988Z,100092.81
2023-08-17T20:20:52.193Z,100092.19
2023-08-17T20:23:20.104Z,100091.34
2023-08-17T20:25:49.256Z,100088.81
2023-08-17T20:28:16.488Z,100100.75
2023-08-17T20:30:45.668Z,100101.84
2023-08-17T20:33:12.555Z,100095.69
2023-08-17T20:35:40.994Z,100101.09
2023-08-17T20:38:08.556Z,100094.97
2023-08-17T20:40:35.915Z,100084.38
2023-08-17T20:43:02.237Z,100075.66
2023-08-17T20:45:28.578Z,100077.63
2023-08-17T20:47:54.929Z,100074.19
2023-08-17T20:50:21.412Z,100070.00
2023-08-17T20:52:47.898Z,100072.69
2023-08-17T20:55:14.241Z,100071.31
2023-08-17T20:57:40.672Z,100064.22
2023-08-17T21:00:08.513Z,100075.13
2023-08-17T21:02:35.354Z,100073.53
2023-08-17T21:05:01.828Z,100067.75
2023-08-17T21:07:30.638Z,100067.88
2023-08-17T21:10:06.666Z,100072.75
2023-08-17T21:12:33.028Z,100071.16
2023-08-17T21:14:59.523Z,100072.25
2023-08-17T21:17:27.853Z,100073.34
2023-08-17T21:19:54.622Z,100072.63
2023-08-17T21:22:21.016Z,100070.13
2023-08-17T21:24:47.376Z,100069.53
2023-08-17T21:27:13.728Z,100063.25
2023-08-17T21:29:40.104Z,100067.03
2023-08-17T21:32:06.852Z,100065.56
2023-08-17T21:34:33.185Z,100064.91
2023-08-17T21:36:59.561Z,100053.50
2023-08-17T21:39:25.939Z,100067.22
2023-08-17T21:41:52.266Z,100060.31
2023-08-17T21:44:18.639Z,100055.91
2023-08-17T21:46:45.022Z,100052.44
2023-08-17T21:49:11.380Z,100057.22
2023-08-17T21:51:37.714Z,100054.75
2023-08-17T21:54:04.508Z,100044.06
2023-08-17T21:56:30.910Z,100050.44
2023-08-17T21:58:57.236Z,100047.88
2023-08-17T22:01:23.604Z,100038.38
2023-08-17T22:03:50.029Z,100031.38
2023-08-17T22:06:16.537Z,100025.34
2023-08-17T22:08:42.891Z,100030.00
2023-08-17T22:11:09.272Z,100019.53
2023-08-17T22:13:35.773Z,100019.44
2023-08-17T22:16:02.173Z,100021.28
2023-08-17T22:18:28.529Z,100030.44
2023-08-17T22:20:54.907Z,100028.75
2023-08-17T22:23:21.281Z,100025.06
2023-08-17T22:25:48.357Z,100016.97
2023-08-17T22:28:14.737Z,100014.50
2023-08-17T22:30:41.146Z,100014.41
2023-08-17T22:33:07.651Z,100016.34
2023-08-17T22:35:34.153Z,100018.16
2023-08-17T22:38:00.540Z,100023.56
2023-08-17T22:40:26.938Z,100025.28
2023-08-17T22:42:53.247Z,100026.25
2023-08-17T22:45:19.554Z,100027.00
2023-08-17T22:47:45.936Z,100024.31
2023-08-17T22:50:12.277Z,100028.75
2023-08-17T22:52:39.467Z,100025.06
2023-08-17T22:55:05.973Z,100019.25
2023-08-17T22:57:32.314Z,100027.34
2023-08-17T22:59:58.640Z,100019.50
2023-08-17T23:02:25.031Z,100030.50
2023-08-17T23:04:51.408Z,100036.00
2023-08-17T23:07:17.776Z,100028.91
2023-08-17T23:09:44.287Z,100024.25
2023-08-17T23:12:10.687Z,100030.50
2023-08-17T23:14:37.080Z,100026.84
2023-08-17T23:17:03.436Z,100022.41
2023-08-17T23:19:29.837Z,100019.94
2023-08-17T23:21:56.169Z,100023.25
2023-08-17T23:24:22.610Z,100031.16
2023-08-17T23:26:49.038Z,100035.56
2023-08-17T23:29:15.400Z,100038.50
2023-08-17T23:31:41.774Z,100026.19
2023-08-17T23:34:08.343Z,100027.91
2023-08-17T23:36:35.207Z,100032.44
2023-08-17T23:39:01.640Z,100035.16
2023-08-17T23:41:28.571Z,100037.00
2023-08-17T23:43:54.938Z,100033.78
2023-08-17T23:46:21.291Z,100044.97
2023-08-17T23:48:47.710Z,100037.09
2023-08-17T23:51:14.087Z,100037.84
2023-08-17T23:53:40.414Z,100040.88
2023-08-17T23:56:06.730Z,100041.00
2023-08-17T23:58:33.063Z,100034.09
